sensor_id;sensor_type;location;lat;lon;timestamp;P1;durP1;ratioP1;P2;durP2;ratioP2
27039;SDS011;14589;51.578;7.306;2022-12-18T00:01:31;0.20;;;0.20;;
27039;SDS011;14589;51.578;7.306;2022-12-18T00:03:58;0.10;;;0.10;;
27039;SDS011;14589;51.578;7.306;2022-12-18T00:06:26;0.10;;;0.10;;
27039;SDS011;14589;51.578;7.306;2022-12-18T00:08:52;0.20;;;0.20;;
27039;SDS011;14589;51.578;7.306;2022-12-18T00:11:19;0.17;;;0.17;;
27039;SDS011;14589;51.578;7.306;2022-12-18T00:13:46;0.10;;;0.10;;
27039;SDS011;14589;51.578;7.306;2022-12-18T00:16:13;0.10;;;0.10;;
27039;SDS011;14589;51.578;7.306;2022-12-18T00:18:42;0.10;;;0.10;;
27039;SDS011;14589;51.578;7.306;2022-12-18T00:21:09;0.10;;;0.10;;
27039;SDS011;14589;51.578;7.306;2022-12-18T00:23:36;0.20;;;0.20;;
27039;SDS011;14589;51.578;7.306;2022-12-18T00:26:04;0.17;;;0.17;;
27039;SDS011;14589;51.578;7.306;2022-12-18T00:28:32;0.13;;;0.13;;
27039;SDS011;14589;51.578;7.306;2022-12-18T00:31:01;0.13;;;0.13;;
27039;SDS011;14589;51.578;7.306;2022-12-18T00:33:27;0.10;;;0.10;;
27039;SDS011;14589;51.578;7.306;2022-12-18T00:35:53;0.20;;;0.20;;
27039;SDS011;14589;51.578;7.306;2022-12-18T00:38:18;0.20;;;0.20;;
27039;SDS011;14589;51.578;7.306;2022-12-18T00:40:44;0.20;;;0.15;;
27039;SDS011;14589;51.578;7.306;2022-12-18T00:43:12;0.20;;;0.20;;
27039;SDS011;14589;51.578;7.306;2022-12-18T00:45:40;0.10;;;0.10;;
27039;SDS011;14589;51.578;7.306;2022-12-18T00:48:06;0.10;;;0.10;;
27039;SDS011;14589;51.578;7.306;2022-12-18T00:50:31;0.20;;;0.20;;
27039;SDS011;14589;51.578;7.306;2022-12-18T00:52:59;0.10;;;0.10;;
27039;SDS011;14589;51.578;7.306;2022-12-18T00:55:24;0.15;;;0.15;;
27039;SDS011;14589;51.578;7.306;2022-12-18T00:57:50;0.20;;;0.20;;
27039;SDS011;14589;51.578;7.306;2022-12-18T01:00:17;0.20;;;0.20;;
27039;SDS011;14589;51.578;7.306;2022-12-18T01:02:43;0.20;;;0.20;;
27039;SDS011;14589;51.578;7.306;2022-12-18T01:05:09;0.17;;;0.17;;
27039;SDS011;14589;51.578;7.306;2022-12-18T01:07:36;0.30;;;0.30;;
27039;SDS011;14589;51.578;7.306;2022-12-18T01:10:02;0.20;;;0.20;;
27039;SDS011;14589;51.578;7.306;2022-12-18T01:12:29;0.20;;;0.20;;
27039;SDS011;14589;51.578;7.306;2022-12-18T01:14:54;0.20;;;0.20;;
27039;SDS011;14589;51.578;7.306;2022-12-18T01:17:20;0.10;;;0.10;;
27039;SDS011;14589;51.578;7.306;2022-12-18T01:19:46;0.10;;;0.10;;
27039;SDS011;14589;51.578;7.306;2022-12-18T01:22:11;0.10;;;0.10;;
27039;SDS011;14589;51.578;7.306;2022-12-18T01:24:37;0.15;;;0.15;;
27039;SDS011;14589;51.578;7.306;2022-12-18T01:27:02;0.20;;;0.15;;
27039;SDS011;14589;51.578;7.306;2022-12-18T01:29:27;0.10;;;0.10;;
27039;SDS011;14589;51.578;7.306;2022-12-18T01:31:54;0.32;;;0.32;;
27039;SDS011;14589;51.578;7.306;2022-12-18T01:34:22;0.10;;;0.10;;
27039;SDS011;14589;51.578;7.306;2022-12-18T01:36:48;0.10;;;0.10;;
27039;SDS011;14589;51.578;7.306;2022-12-18T01:39:14;0.20;;;0.20;;
27039;SDS011;14589;51.578;7.306;2022-12-18T01:41:41;0.20;;;0.20;;
27039;SDS011;14589;51.578;7.306;2022-12-18T01:49:45;0.30;;;0.30;;
27039;SDS011;14589;51.578;7.306;2022-12-18T01:52:11;0.28;;;0.28;;
27039;SDS011;14589;51.578;7.306;2022-12-18T01:54:36;0.20;;;0.20;;
27039;SDS011;14589;51.578;7.306;2022-12-18T01:57:02;0.20;;;0.20;;
27039;SDS011;14589;51.578;7.306;2022-12-18T01:59:27;0.20;;;0.20;;
27039;SDS011;14589;51.578;7.306;2022-12-18T02:01:53;0.20;;;0.20;;
27039;SDS011;14589;51.578;7.306;2022-12-18T02:06:44;0.20;;;0.20;;
27039;SDS011;14589;51.578;7.306;2022-12-18T02:17:47;0.28;;;0.28;;
27039;SDS011;14589;51.578;7.306;2022-12-18T02:20:53;0.17;;;0.17;;
27039;SDS011;14589;51.578;7.306;2022-12-18T02:26:19;0.45;;;0.22;;
27039;SDS011;14589;51.578;7.306;2022-12-18T02:28:52;0.20;;;0.20;;
27039;SDS011;14589;51.578;7.306;2022-12-18T02:31:21;0.30;;;0.30;;
27039;SDS011;14589;51.578;7.306;2022-12-18T02:33:50;0.10;;;0.10;;
27039;SDS011;14589;51.578;7.306;2022-12-18T02:36:18;0.20;;;0.20;;
27039;SDS011;14589;51.578;7.306;2022-12-18T02:38:47;0.20;;;0.20;;
27039;SDS011;14589;51.578;7.306;2022-12-18T02:41:14;0.20;;;0.20;;
27039;SDS011;14589;51.578;7.306;2022-12-18T02:43:46;0.20;;;0.20;;
27039;SDS011;14589;51.578;7.306;2022-12-18T02:46:27;0.20;;;0.20;;
27039;SDS011;14589;51.578;7.306;2022-12-18T02:49:15;0.20;;;0.20;;
27039;SDS011;14589;51.578;7.306;2022-12-18T03:00:24;0.22;;;0.22;;
27039;SDS011;14589;51.578;7.306;2022-12-18T03:05:22;0.20;;;0.20;;
27039;SDS011;14589;51.578;7.306;2022-12-18T03:07:55;0.20;;;0.20;;
27039;SDS011;14589;51.578;7.306;2022-12-18T03:10:32;0.20;;;0.20;;
27039;SDS011;14589;51.578;7.306;2022-12-18T03:17:04;0.38;;;0.38;;
27039;SDS011;14589;51.578;7.306;2022-12-18T03:19:31;0.20;;;0.20;;
27039;SDS011;14589;51.578;7.306;2022-12-18T03:22:00;0.20;;;0.20;;
27039;SDS011;14589;51.578;7.306;2022-12-18T03:27:00;0.30;;;0.30;;
27039;SDS011;14589;51.578;7.306;2022-12-18T03:29:28;0.20;;;0.20;;
27039;SDS011;14589;51.578;7.306;2022-12-18T03:32:07;0.25;;;0.25;;
27039;SDS011;14589;51.578;7.306;2022-12-18T03:34:37;0.30;;;0.30;;
27039;SDS011;14589;51.578;7.306;2022-12-18T03:37:06;0.20;;;0.20;;
27039;SDS011;14589;51.578;7.306;2022-12-18T03:39:33;0.20;;;0.20;;
27039;SDS011;14589;51.578;7.306;2022-12-18T03:45:13;0.20;;;0.20;;
27039;SDS011;14589;51.578;7.306;2022-12-18T03:52:56;0.20;;;0.20;;
27039;SDS011;14589;51.578;7.306;2022-12-18T03:55:27;0.20;;;0.20;;
27039;SDS011;14589;51.578;7.306;2022-12-18T03:57:59;0.17;;;0.17;;
27039;SDS011;14589;51.578;7.306;2022-12-18T04:00:32;0.20;;;0.20;;
27039;SDS011;14589;51.578;7.306;2022-12-18T04:03:05;0.20;;;0.20;;
27039;SDS011;14589;51.578;7.306;2022-12-18T04:05:40;0.20;;;0.20;;
27039;SDS011;14589;51.578;7.306;2022-12-18T04:08:08;0.13;;;0.13;;
27039;SDS011;14589;51.578;7.306;2022-12-18T04:10:37;0.45;;;0.22;;
27039;SDS011;14589;51.578;7.306;2022-12-18T04:13:03;0.13;;;0.13;;
27039;SDS011;14589;51.578;7.306;2022-12-18T04:15:28;0.28;;;0.28;;
27039;SDS011;14589;51.578;7.306;2022-12-18T04:17:55;0.10;;;0.10;;
27039;SDS011;14589;51.578;7.306;2022-12-18T04:20:23;0.20;;;0.20;;
27039;SDS011;14589;51.578;7.306;2022-12-18T04:22:48;0.20;;;0.20;;
27039;SDS011;14589;51.578;7.306;2022-12-18T04:25:14;0.20;;;0.20;;
27039;SDS011;14589;51.578;7.306;2022-12-18T04:27:51;0.25;;;0.25;;
27039;SDS011;14589;51.578;7.306;2022-12-18T04:30:17;0.20;;;0.20;;
27039;SDS011;14589;51.578;7.306;2022-12-18T04:32:43;0.17;;;0.17;;
27039;SDS011;14589;51.578;7.306;2022-12-18T04:35:09;0.35;;;0.22;;
27039;SDS011;14589;51.578;7.306;2022-12-18T04:37:39;0.20;;;0.20;;
27039;SDS011;14589;51.578;7.306;2022-12-18T04:40:05;0.20;;;0.20;;
27039;SDS011;14589;51.578;7.306;2022-12-18T04:42:38;0.17;;;0.17;;
27039;SDS011;14589;51.578;7.306;2022-12-18T04:45:05;0.25;;;0.25;;
27039;SDS011;14589;51.578;7.306;2022-12-18T04:47:31;0.10;;;0.10;;
27039;SDS011;14589;51.578;7.306;2022-12-18T04:49:56;0.10;;;0.10;;
27039;SDS011;14589;51.578;7.306;2022-12-18T04:52:22;0.20;;;0.20;;
27039;SDS011;14589;51.578;7.306;2022-12-18T04:54:47;0.28;;;0.28;;
27039;SDS011;14589;51.578;7.306;2022-12-18T04:57:13;0.30;;;0.30;;
27039;SDS011;14589;51.578;7.306;2022-12-18T04:59:39;0.30;;;0.30;;
27039;SDS011;14589;51.578;7.306;2022-12-18T05:02:04;0.10;;;0.10;;
27039;SDS011;14589;51.578;7.306;2022-12-18T05:04:30;0.20;;;0.20;;
27039;SDS011;14589;51.578;7.306;2022-12-18T05:06:55;0.20;;;0.20;;
27039;SDS011;14589;51.578;7.306;2022-12-18T05:09:21;0.20;;;0.20;;
27039;SDS011;14589;51.578;7.306;2022-12-18T05:11:46;0.20;;;0.20;;
27039;SDS011;14589;51.578;7.306;2022-12-18T05:14:12;0.17;;;0.17;;
27039;SDS011;14589;51.578;7.306;2022-12-18T05:16:37;0.17;;;0.17;;
27039;SDS011;14589;51.578;7.306;2022-12-18T05:19:02;0.30;;;0.30;;
27039;SDS011;14589;51.578;7.306;2022-12-18T05:21:28;0.10;;;0.10;;
27039;SDS011;14589;51.578;7.306;2022-12-18T05:23:53;0.20;;;0.20;;
27039;SDS011;14589;51.578;7.306;2022-12-18T05:26:19;0.25;;;0.25;;
27039;SDS011;14589;51.578;7.306;2022-12-18T05:28:44;0.30;;;0.30;;
27039;SDS011;14589;51.578;7.306;2022-12-18T05:31:11;0.22;;;0.22;;
27039;SDS011;14589;51.578;7.306;2022-12-18T05:33:36;0.10;;;0.10;;
27039;SDS011;14589;51.578;7.306;2022-12-18T05:36:02;0.15;;;0.15;;
27039;SDS011;14589;51.578;7.306;2022-12-18T05:38:30;0.10;;;0.10;;
27039;SDS011;14589;51.578;7.306;2022-12-18T05:40:56;0.20;;;0.20;;
27039;SDS011;14589;51.578;7.306;2022-12-18T05:43:22;0.20;;;0.20;;
27039;SDS011;14589;51.578;7.306;2022-12-18T05:45:48;0.20;;;0.20;;
27039;SDS011;14589;51.578;7.306;2022-12-18T05:48:14;0.20;;;0.20;;
27039;SDS011;14589;51.578;7.306;2022-12-18T05:50:41;0.10;;;0.10;;
27039;SDS011;14589;51.578;7.306;2022-12-18T05:53:08;0.20;;;0.20;;
27039;SDS011;14589;51.578;7.306;2022-12-18T05:55:34;0.20;;;0.20;;
27039;SDS011;14589;51.578;7.306;2022-12-18T05:58:00;0.20;;;0.20;;
27039;SDS011;14589;51.578;7.306;2022-12-18T06:00:26;0.10;;;0.10;;
27039;SDS011;14589;51.578;7.306;2022-12-18T06:02:51;0.30;;;0.20;;
27039;SDS011;14589;51.578;7.306;2022-12-18T06:05:17;0.20;;;0.20;;
27039;SDS011;14589;51.578;7.306;2022-12-18T06:07:42;0.10;;;0.10;;
27039;SDS011;14589;51.578;7.306;2022-12-18T06:10:07;0.10;;;0.10;;
27039;SDS011;14589;51.578;7.306;2022-12-18T06:12:33;0.20;;;0.20;;
27039;SDS011;14589;51.578;7.306;2022-12-18T06:14:59;0.10;;;0.10;;
27039;SDS011;14589;51.578;7.306;2022-12-18T06:17:28;0.20;;;0.20;;
27039;SDS011;14589;51.578;7.306;2022-12-18T06:19:54;0.20;;;0.20;;
27039;SDS011;14589;51.578;7.306;2022-12-18T06:22:20;0.10;;;0.10;;
27039;SDS011;14589;51.578;7.306;2022-12-18T06:24:45;0.10;;;0.10;;
27039;SDS011;14589;51.578;7.306;2022-12-18T06:27:11;0.20;;;0.20;;
27039;SDS011;14589;51.578;7.306;2022-12-18T06:29:36;0.20;;;0.20;;
27039;SDS011;14589;51.578;7.306;2022-12-18T06:32:01;0.20;;;0.20;;
27039;SDS011;14589;51.578;7.306;2022-12-18T06:34:27;0.10;;;0.10;;
27039;SDS011;14589;51.578;7.306;2022-12-18T06:36:52;0.10;;;0.10;;
27039;SDS011;14589;51.578;7.306;2022-12-18T06:39:18;0.15;;;0.15;;
27039;SDS011;14589;51.578;7.306;2022-12-18T06:41:43;0.20;;;0.20;;
27039;SDS011;14589;51.578;7.306;2022-12-18T06:44:09;0.20;;;0.20;;
27039;SDS011;14589;51.578;7.306;2022-12-18T06:46:35;0.10;;;0.10;;
27039;SDS011;14589;51.578;7.306;2022-12-18T06:49:06;0.20;;;0.20;;
27039;SDS011;14589;51.578;7.306;2022-12-18T06:53:59;0.20;;;0.20;;
27039;SDS011;14589;51.578;7.306;2022-12-18T06:56:24;0.17;;;0.17;;
27039;SDS011;14589;51.578;7.306;2022-12-18T06:58:50;0.20;;;0.20;;
27039;SDS011;14589;51.578;7.306;2022-12-18T07:01:15;0.20;;;0.20;;
27039;SDS011;14589;51.578;7.306;2022-12-18T07:03:41;0.10;;;0.10;;
27039;SDS011;14589;51.578;7.306;2022-12-18T07:06:12;0.15;;;0.15;;
27039;SDS011;14589;51.578;7.306;2022-12-18T07:08:38;0.17;;;0.17;;
27039;SDS011;14589;51.578;7.306;2022-12-18T07:11:04;0.10;;;0.10;;
27039;SDS011;14589;51.578;7.306;2022-12-18T07:13:30;0.20;;;0.20;;
27039;SDS011;14589;51.578;7.306;2022-12-18T07:15:55;0.10;;;0.10;;
27039;SDS011;14589;51.578;7.306;2022-12-18T07:18:28;0.20;;;0.20;;
27039;SDS011;14589;51.578;7.306;2022-12-18T07:20:53;0.15;;;0.15;;
27039;SDS011;14589;51.578;7.306;2022-12-18T07:23:19;0.10;;;0.10;;
27039;SDS011;14589;51.578;7.306;2022-12-18T07:25:44;0.20;;;0.20;;
27039;SDS011;14589;51.578;7.306;2022-12-18T07:28:10;0.20;;;0.20;;
27039;SDS011;14589;51.578;7.306;2022-12-18T07:30:36;0.20;;;0.20;;
27039;SDS011;14589;51.578;7.306;2022-12-18T07:33:02;0.20;;;0.20;;
27039;SDS011;14589;51.578;7.306;2022-12-18T07:35:28;0.10;;;0.10;;
27039;SDS011;14589;51.578;7.306;2022-12-18T07:37:53;0.10;;;0.10;;
27039;SDS011;14589;51.578;7.306;2022-12-18T07:40:18;0.10;;;0.10;;
27039;SDS011;14589;51.578;7.306;2022-12-18T07:42:44;0.10;;;0.10;;
27039;SDS011;14589;51.578;7.306;2022-12-18T07:45:09;0.20;;;0.20;;
27039;SDS011;14589;51.578;7.306;2022-12-18T07:47:36;0.20;;;0.20;;
27039;SDS011;14589;51.578;7.306;2022-12-18T07:50:02;0.10;;;0.10;;
27039;SDS011;14589;51.578;7.306;2022-12-18T07:52:28;0.20;;;0.20;;
27039;SDS011;14589;51.578;7.306;2022-12-18T07:54:54;0.20;;;0.20;;
27039;SDS011;14589;51.578;7.306;2022-12-18T07:57:19;0.10;;;0.10;;
27039;SDS011;14589;51.578;7.306;2022-12-18T07:59:44;0.28;;;0.28;;
27039;SDS011;14589;51.578;7.306;2022-12-18T08:02:10;0.15;;;0.15;;
27039;SDS011;14589;51.578;7.306;2022-12-18T08:04:35;0.15;;;0.15;;
27039;SDS011;14589;51.578;7.306;2022-12-18T08:07:01;0.10;;;0.10;;
27039;SDS011;14589;51.578;7.306;2022-12-18T08:09:26;0.20;;;0.20;;
27039;SDS011;14589;51.578;7.306;2022-12-18T08:11:52;0.13;;;0.13;;
27039;SDS011;14589;51.578;7.306;2022-12-18T08:14:17;0.17;;;0.17;;
27039;SDS011;14589;51.578;7.306;2022-12-18T08:16:42;0.10;;;0.10;;
27039;SDS011;14589;51.578;7.306;2022-12-18T08:19:08;0.00;;;0.00;;
27039;SDS011;14589;51.578;7.306;2022-12-18T08:21:33;0.10;;;0.10;;
27039;SDS011;14589;51.578;7.306;2022-12-18T08:23:59;0.10;;;0.10;;
27039;SDS011;14589;51.578;7.306;2022-12-18T08:26:26;0.15;;;0.15;;
27039;SDS011;14589;51.578;7.306;2022-12-18T08:28:54;0.10;;;0.10;;
27039;SDS011;14589;51.578;7.306;2022-12-18T08:31:20;0.03;;;0.03;;
27039;SDS011;14589;51.578;7.306;2022-12-18T08:33:47;0.00;;;0.00;;
27039;SDS011;14589;51.578;7.306;2022-12-18T08:36:16;0.00;;;0.00;;
27039;SDS011;14589;51.578;7.306;2022-12-18T08:38:43;0.00;;;0.00;;
27039;SDS011;14589;51.578;7.306;2022-12-18T08:41:09;0.00;;;0.00;;
27039;SDS011;14589;51.578;7.306;2022-12-18T08:43:36;0.00;;;0.00;;
27039;SDS011;14589;51.578;7.306;2022-12-18T08:46:21;0.10;;;0.10;;
27039;SDS011;14589;51.578;7.306;2022-12-18T08:48:56;0.00;;;0.00;;
27039;SDS011;14589;51.578;7.306;2022-12-18T08:51:21;0.00;;;0.00;;
27039;SDS011;14589;51.578;7.306;2022-12-18T08:53:47;0.00;;;0.00;;
27039;SDS011;14589;51.578;7.306;2022-12-18T08:56:13;0.00;;;0.00;;
27039;SDS011;14589;51.578;7.306;2022-12-18T08:58:39;0.00;;;0.00;;
27039;SDS011;14589;51.578;7.306;2022-12-18T09:01:05;0.00;;;0.00;;
27039;SDS011;14589;51.578;7.306;2022-12-18T09:03:32;0.00;;;0.00;;
27039;SDS011;14589;51.578;7.306;2022-12-18T09:05:57;0.00;;;0.00;;
27039;SDS011;14589;51.578;7.306;2022-12-18T09:08:23;0.08;;;0.08;;
27039;SDS011;14589;51.578;7.306;2022-12-18T09:10:49;0.00;;;0.00;;
27039;SDS011;14589;51.578;7.306;2022-12-18T09:13:15;0.00;;;0.00;;
27039;SDS011;14589;51.578;7.306;2022-12-18T09:15:41;0.00;;;0.00;;
27039;SDS011;14589;51.578;7.306;2022-12-18T09:18:08;0.00;;;0.00;;
27039;SDS011;14589;51.578;7.306;2022-12-18T09:20:38;0.00;;;0.00;;
27039;SDS011;14589;51.578;7.306;2022-12-18T09:23:04;0.00;;;0.00;;
27039;SDS011;14589;51.578;7.306;2022-12-18T09:25:32;0.00;;;0.00;;
27039;SDS011;14589;51.578;7.306;2022-12-18T09:28:03;0.05;;;0.05;;
27039;SDS011;14589;51.578;7.306;2022-12-18T09:30:39;0.10;;;0.10;;
27039;SDS011;14589;51.578;7.306;2022-12-18T09:33:09;0.00;;;0.00;;
27039;SDS011;14589;51.578;7.306;2022-12-18T09:35:37;0.10;;;0.10;;
27039;SDS011;14589;51.578;7.306;2022-12-18T09:38:05;0.00;;;0.00;;
27039;SDS011;14589;51.578;7.306;2022-12-18T09:40:35;0.10;;;0.10;;
27039;SDS011;14589;51.578;7.306;2022-12-18T09:43:03;0.10;;;0.10;;
27039;SDS011;14589;51.578;7.306;2022-12-18T09:45:30;0.10;;;0.10;;
27039;SDS011;14589;51.578;7.306;2022-12-18T09:48:16;0.08;;;0.08;;
27039;SDS011;14589;51.578;7.306;2022-12-18T09:50:45;0.10;;;0.10;;
27039;SDS011;14589;51.578;7.306;2022-12-18T09:53:22;0.10;;;0.10;;
27039;SDS011;14589;51.578;7.306;2022-12-18T09:55:50;0.10;;;0.10;;
27039;SDS011;14589;51.578;7.306;2022-12-18T09:58:25;0.10;;;0.10;;
27039;SDS011;14589;51.578;7.306;2022-12-18T10:00:53;0.10;;;0.10;;
27039;SDS011;14589;51.578;7.306;2022-12-18T10:03:19;0.00;;;0.00;;
27039;SDS011;14589;51.578;7.306;2022-12-18T10:06:06;0.10;;;0.10;;
27039;SDS011;14589;51.578;7.306;2022-12-18T10:11:28;0.10;;;0.10;;
27039;SDS011;14589;51.578;7.306;2022-12-18T10:17:13;0.03;;;0.03;;
27039;SDS011;14589;51.578;7.306;2022-12-18T10:19:59;0.10;;;0.10;;
27039;SDS011;14589;51.578;7.306;2022-12-18T10:28:18;0.00;;;0.00;;
27039;SDS011;14589;51.578;7.306;2022-12-18T10:30:47;0.00;;;0.00;;
27039;SDS011;14589;51.578;7.306;2022-12-18T10:33:17;0.00;;;0.00;;
27039;SDS011;14589;51.578;7.306;2022-12-18T10:35:44;0.00;;;0.00;;
27039;SDS011;14589;51.578;7.306;2022-12-18T10:40:56;0.00;;;0.00;;
27039;SDS011;14589;51.578;7.306;2022-12-18T10:48:33;0.00;;;0.00;;
27039;SDS011;14589;51.578;7.306;2022-12-18T10:51:01;0.00;;;0.00;;
27039;SDS011;14589;51.578;7.306;2022-12-18T10:53:29;0.00;;;0.00;;
27039;SDS011;14589;51.578;7.306;2022-12-18T10:55:57;0.00;;;0.00;;
27039;SDS011;14589;51.578;7.306;2022-12-18T10:58:27;0.00;;;0.00;;
27039;SDS011;14589;51.578;7.306;2022-12-18T11:01:15;0.00;;;0.00;;
27039;SDS011;14589;51.578;7.306;2022-12-18T11:03:46;0.00;;;0.00;;
27039;SDS011;14589;51.578;7.306;2022-12-18T11:06:24;0.00;;;0.00;;
27039;SDS011;14589;51.578;7.306;2022-12-18T11:08:57;0.00;;;0.00;;
27039;SDS011;14589;51.578;7.306;2022-12-18T11:14:04;0.00;;;0.00;;
27039;SDS011;14589;51.578;7.306;2022-12-18T11:16:36;0.00;;;0.00;;
27039;SDS011;14589;51.578;7.306;2022-12-18T11:21:59;0.00;;;0.00;;
27039;SDS011;14589;51.578;7.306;2022-12-18T11:24:27;0.00;;;0.00;;
27039;SDS011;14589;51.578;7.306;2022-12-18T11:26:56;0.00;;;0.00;;
27039;SDS011;14589;51.578;7.306;2022-12-18T11:29:44;0.00;;;0.00;;
27039;SDS011;14589;51.578;7.306;2022-12-18T11:34:41;0.05;;;0.05;;
27039;SDS011;14589;51.578;7.306;2022-12-18T11:37:13;0.00;;;0.00;;
27039;SDS011;14589;51.578;7.306;2022-12-18T11:39:41;0.00;;;0.00;;
27039;SDS011;14589;51.578;7.306;2022-12-18T11:42:20;0.00;;;0.00;;
27039;SDS011;14589;51.578;7.306;2022-12-18T11:44:51;0.00;;;0.00;;
27039;SDS011;14589;51.578;7.306;2022-12-18T11:47:28;0.00;;;0.00;;
27039;SDS011;14589;51.578;7.306;2022-12-18T11:50:01;0.00;;;0.00;;
27039;SDS011;14589;51.578;7.306;2022-12-18T11:52:30;0.00;;;0.00;;
27039;SDS011;14589;51.578;7.306;2022-12-18T11:54:59;0.00;;;0.00;;
27039;SDS011;14589;51.578;7.306;2022-12-18T11:57:47;0.00;;;0.00;;
27039;SDS011;14589;51.578;7.306;2022-12-18T12:00:20;0.00;;;0.00;;
27039;SDS011;14589;51.578;7.306;2022-12-18T12:08:15;0.00;;;0.00;;
27039;SDS011;14589;51.578;7.306;2022-12-18T12:14:08;0.00;;;0.00;;
27039;SDS011;14589;51.578;7.306;2022-12-18T12:17:03;0.00;;;0.00;;
27039;SDS011;14589;51.578;7.306;2022-12-18T12:19:41;0.00;;;0.00;;
27039;SDS011;14589;51.578;7.306;2022-12-18T12:25:31;0.00;;;0.00;;
27039;SDS011;14589;51.578;7.306;2022-12-18T12:30:53;0.00;;;0.00;;
27039;SDS011;14589;51.578;7.306;2022-12-18T12:36:23;0.05;;;0.05;;
27039;SDS011;14589;51.578;7.306;2022-12-18T12:38:58;0.00;;;0.00;;
27039;SDS011;14589;51.578;7.306;2022-12-18T12:41:32;0.00;;;0.00;;
27039;SDS011;14589;51.578;7.306;2022-12-18T12:44:28;0.00;;;0.00;;
27039;SDS011;14589;51.578;7.306;2022-12-18T12:46:59;0.00;;;0.00;;
27039;SDS011;14589;51.578;7.306;2022-12-18T12:49:27;0.00;;;0.00;;
27039;SDS011;14589;51.578;7.306;2022-12-18T12:52:03;0.00;;;0.00;;
27039;SDS011;14589;51.578;7.306;2022-12-18T12:54:32;0.00;;;0.00;;
27039;SDS011;14589;51.578;7.306;2022-12-18T12:57:09;0.00;;;0.00;;
27039;SDS011;14589;51.578;7.306;2022-12-18T13:02:18;0.00;;;0.00;;
27039;SDS011;14589;51.578;7.306;2022-12-18T13:07:39;0.00;;;0.00;;
27039;SDS011;14589;51.578;7.306;2022-12-18T13:21:04;0.00;;;0.00;;
27039;SDS011;14589;51.578;7.306;2022-12-18T13:23:37;0.00;;;0.00;;
27039;SDS011;14589;51.578;7.306;2022-12-18T13:30:59;0.00;;;0.00;;
27039;SDS011;14589;51.578;7.306;2022-12-18T13:39:09;0.00;;;0.00;;
27039;SDS011;14589;51.578;7.306;2022-12-18T13:41:34;0.00;;;0.00;;
27039;SDS011;14589;51.578;7.306;2022-12-18T13:46:46;0.00;;;0.00;;
27039;SDS011;14589;51.578;7.306;2022-12-18T13:54:57;0.00;;;0.00;;
27039;SDS011;14589;51.578;7.306;2022-12-18T13:57:36;0.00;;;0.00;;
27039;SDS011;14589;51.578;7.306;2022-12-18T14:02:59;0.03;;;0.03;;
27039;SDS011;14589;51.578;7.306;2022-12-18T14:05:32;0.00;;;0.00;;
27039;SDS011;14589;51.578;7.306;2022-12-18T14:08:04;0.00;;;0.00;;
27039;SDS011;14589;51.578;7.306;2022-12-18T14:10:31;0.00;;;0.00;;
27039;SDS011;14589;51.578;7.306;2022-12-18T14:12:57;0.00;;;0.00;;
27039;SDS011;14589;51.578;7.306;2022-12-18T14:20:27;0.00;;;0.00;;
27039;SDS011;14589;51.578;7.306;2022-12-18T14:22:55;0.00;;;0.00;;
27039;SDS011;14589;51.578;7.306;2022-12-18T14:25:22;0.00;;;0.00;;
27039;SDS011;14589;51.578;7.306;2022-12-18T14:27:53;0.00;;;0.00;;
27039;SDS011;14589;51.578;7.306;2022-12-18T14:32:59;0.00;;;0.00;;
27039;SDS011;14589;51.578;7.306;2022-12-18T14:35:28;0.00;;;0.00;;
27039;SDS011;14589;51.578;7.306;2022-12-18T14:38:07;0.00;;;0.00;;
27039;SDS011;14589;51.578;7.306;2022-12-18T14:40:59;0.00;;;0.00;;
27039;SDS011;14589;51.578;7.306;2022-12-18T14:43:33;0.00;;;0.00;;
27039;SDS011;14589;51.578;7.306;2022-12-18T14:46:00;0.05;;;0.05;;
27039;SDS011;14589;51.578;7.306;2022-12-18T14:56:12;0.00;;;0.00;;
27039;SDS011;14589;51.578;7.306;2022-12-18T14:58:50;0.00;;;0.00;;
27039;SDS011;14589;51.578;7.306;2022-12-18T15:01:22;0.00;;;0.00;;
27039;SDS011;14589;51.578;7.306;2022-12-18T15:03:50;0.00;;;0.00;;
27039;SDS011;14589;51.578;7.306;2022-12-18T15:06:17;0.00;;;0.00;;
27039;SDS011;14589;51.578;7.306;2022-12-18T15:08:46;0.00;;;0.00;;
27039;SDS011;14589;51.578;7.306;2022-12-18T15:11:29;0.00;;;0.00;;
27039;SDS011;14589;51.578;7.306;2022-12-18T15:13:58;0.00;;;0.00;;
27039;SDS011;14589;51.578;7.306;2022-12-18T15:16:24;0.00;;;0.00;;
27039;SDS011;14589;51.578;7.306;2022-12-18T15:18:49;0.00;;;0.00;;
27039;SDS011;14589;51.578;7.306;2022-12-18T15:21:16;0.00;;;0.00;;
27039;SDS011;14589;51.578;7.306;2022-12-18T15:23:48;0.00;;;0.00;;
27039;SDS011;14589;51.578;7.306;2022-12-18T15:26:16;0.00;;;0.00;;
27039;SDS011;14589;51.578;7.306;2022-12-18T15:28:50;0.00;;;0.00;;
27039;SDS011;14589;51.578;7.306;2022-12-18T15:33:44;0.00;;;0.00;;
27039;SDS011;14589;51.578;7.306;2022-12-18T15:36:12;0.00;;;0.00;;
27039;SDS011;14589;51.578;7.306;2022-12-18T15:38:46;0.00;;;0.00;;
27039;SDS011;14589;51.578;7.306;2022-12-18T15:41:13;0.00;;;0.00;;
27039;SDS011;14589;51.578;7.306;2022-12-18T15:43:43;0.00;;;0.00;;
27039;SDS011;14589;51.578;7.306;2022-12-18T15:46:11;0.00;;;0.00;;
27039;SDS011;14589;51.578;7.306;2022-12-18T15:48:42;0.00;;;0.00;;
27039;SDS011;14589;51.578;7.306;2022-12-18T15:51:13;0.00;;;0.00;;
27039;SDS011;14589;51.578;7.306;2022-12-18T15:53:40;0.00;;;0.00;;
27039;SDS011;14589;51.578;7.306;2022-12-18T15:56:09;0.00;;;0.00;;
27039;SDS011;14589;51.578;7.306;2022-12-18T15:58:54;0.00;;;0.00;;
27039;SDS011;14589;51.578;7.306;2022-12-18T16:01:20;0.00;;;0.00;;
27039;SDS011;14589;51.578;7.306;2022-12-18T16:03:47;0.00;;;0.00;;
27039;SDS011;14589;51.578;7.306;2022-12-18T16:06:14;0.00;;;0.00;;
27039;SDS011;14589;51.578;7.306;2022-12-18T16:08:39;0.00;;;0.00;;
27039;SDS011;14589;51.578;7.306;2022-12-18T16:11:05;0.00;;;0.00;;
27039;SDS011;14589;51.578;7.306;2022-12-18T16:13:30;0.00;;;0.00;;
27039;SDS011;14589;51.578;7.306;2022-12-18T16:15:56;0.00;;;0.00;;
27039;SDS011;14589;51.578;7.306;2022-12-18T16:18:21;0.00;;;0.00;;
27039;SDS011;14589;51.578;7.306;2022-12-18T16:20:50;0.00;;;0.00;;
27039;SDS011;14589;51.578;7.306;2022-12-18T16:23:15;0.00;;;0.00;;
27039;SDS011;14589;51.578;7.306;2022-12-18T16:25:41;0.00;;;0.00;;
27039;SDS011;14589;51.578;7.306;2022-12-18T16:28:07;0.00;;;0.00;;
27039;SDS011;14589;51.578;7.306;2022-12-18T16:30:35;0.00;;;0.00;;
27039;SDS011;14589;51.578;7.306;2022-12-18T16:33:02;0.00;;;0.00;;
27039;SDS011;14589;51.578;7.306;2022-12-18T16:35:32;0.00;;;0.00;;
27039;SDS011;14589;51.578;7.306;2022-12-18T16:37:57;0.00;;;0.00;;
27039;SDS011;14589;51.578;7.306;2022-12-18T16:40:32;0.00;;;0.00;;
27039;SDS011;14589;51.578;7.306;2022-12-18T16:42:59;0.00;;;0.00;;
27039;SDS011;14589;51.578;7.306;2022-12-18T16:45:29;0.00;;;0.00;;
27039;SDS011;14589;51.578;7.306;2022-12-18T16:47:58;0.00;;;0.00;;
27039;SDS011;14589;51.578;7.306;2022-12-18T16:50:23;0.00;;;0.00;;
27039;SDS011;14589;51.578;7.306;2022-12-18T16:52:50;0.00;;;0.00;;
27039;SDS011;14589;51.578;7.306;2022-12-18T16:55:19;0.00;;;0.00;;
27039;SDS011;14589;51.578;7.306;2022-12-18T16:57:45;0.00;;;0.00;;
27039;SDS011;14589;51.578;7.306;2022-12-18T17:00:13;0.00;;;0.00;;
27039;SDS011;14589;51.578;7.306;2022-12-18T17:02:39;0.00;;;0.00;;
27039;SDS011;14589;51.578;7.306;2022-12-18T17:05:05;0.00;;;0.00;;
27039;SDS011;14589;51.578;7.306;2022-12-18T17:07:30;0.00;;;0.00;;
27039;SDS011;14589;51.578;7.306;2022-12-18T17:09:56;0.00;;;0.00;;
27039;SDS011;14589;51.578;7.306;2022-12-18T17:12:22;0.00;;;0.00;;
27039;SDS011;14589;51.578;7.306;2022-12-18T17:14:51;0.00;;;0.00;;
27039;SDS011;14589;51.578;7.306;2022-12-18T17:17:17;0.00;;;0.00;;
27039;SDS011;14589;51.578;7.306;2022-12-18T17:19:45;0.00;;;0.00;;
27039;SDS011;14589;51.578;7.306;2022-12-18T17:22:11;0.00;;;0.00;;
27039;SDS011;14589;51.578;7.306;2022-12-18T17:24:36;0.00;;;0.00;;
27039;SDS011;14589;51.578;7.306;2022-12-18T17:27:02;0.00;;;0.00;;